createdAt,value
2022-10-11T00:00:05.843Z,14.80
2022-10-11T00:02:32.676Z,13.70
2022-10-11T00:04:59.483Z,14.40
2022-10-11T00:07:26.787Z,14.10
2022-10-11T00:09:53.599Z,14.00
2022-10-11T00:12:20.352Z,13.60
2022-10-11T00:14:47.044Z,13.90
2022-10-11T00:17:14.522Z,15.30
2022-10-11T00:19:41.283Z,13.60
2022-10-11T00:22:08.278Z,13.60
2022-10-11T00:24:35.046Z,13.80
2022-10-11T00:27:01.831Z,13.90
2022-10-11T00:29:28.616Z,14.30
2022-10-11T00:31:55.378Z,14.10
2022-10-11T00:34:22.131Z,14.10
2022-10-11T00:36:48.886Z,14.50
2022-10-11T00:39:15.655Z,13.80
2022-10-11T00:41:42.688Z,13.80
2022-10-11T00:44:17.796Z,14.00
2022-10-11T00:47:02.302Z,13.80
2022-10-11T00:49:41.092Z,13.70
2022-10-11T00:52:14.346Z,13.80
2022-10-11T00:54:43.502Z,13.70
2022-10-11T00:57:17.099Z,13.90
2022-10-11T00:59:47.937Z,14.00
2022-10-11T01:02:16.001Z,13.60
2022-10-11T01:04:43.071Z,14.80
2022-10-11T01:07:11.016Z,13.90
2022-10-11T01:09:37.856Z,14.00
2022-10-11T01:12:12.062Z,13.40
2022-10-11T01:14:50.334Z,13.30
2022-10-11T01:17:32.731Z,13.30
2022-10-11T01:20:14.697Z,13.30
2022-10-11T01:23:12.186Z,13.20
2022-10-11T01:25:57.455Z,13.10
2022-10-11T01:28:51.084Z,13.00
2022-10-11T01:31:38.969Z,12.90
2022-10-11T01:34:15.430Z,12.80
2022-10-11T01:36:58.353Z,12.70
2022-10-11T01:40:20.235Z,12.70
2022-10-11T01:42:47.906Z,12.70
2022-10-11T01:45:18.566Z,12.80
2022-10-11T01:47:48.728Z,12.70
2022-10-11T01:50:43.850Z,13.20
2022-10-11T01:53:44.075Z,12.80
2022-10-11T01:56:19.789Z,12.70
2022-10-11T01:59:24.008Z,12.70
2022-10-11T02:01:59.659Z,12.70
2022-10-11T02:04:49.193Z,12.60
2022-10-11T02:07:23.385Z,12.60
2022-10-11T02:10:19.253Z,12.50
2022-10-11T02:12:55.609Z,12.50
2022-10-11T02:15:25.242Z,12.70
2022-10-11T02:17:56.874Z,12.50
2022-10-11T02:20:26.200Z,12.80
2022-10-11T02:22:59.688Z,13.90
2022-10-11T02:25:30.700Z,13.10
2022-10-11T02:28:00.981Z,13.40
2022-10-11T02:30:30.562Z,14.00
2022-10-11T02:32:58.790Z,12.40
2022-10-11T02:35:29.234Z,12.90
2022-10-11T02:38:02.527Z,14.50
2022-10-11T02:40:42.637Z,12.50
2022-10-11T02:43:17.663Z,12.50
2022-10-11T02:45:49.987Z,13.10
2022-10-11T02:48:17.766Z,12.40
2022-10-11T02:50:44.803Z,14.70
2022-10-11T02:53:11.628Z,13.50
2022-10-11T02:55:38.378Z,13.50
2022-10-11T02:58:05.108Z,12.40
2022-10-11T03:00:32.045Z,13.40
2022-10-11T03:02:58.806Z,13.50
2022-10-11T03:05:25.648Z,14.20
2022-10-11T03:07:52.441Z,14.00
2022-10-11T03:10:19.381Z,12.20
2022-10-11T03:12:46.089Z,12.30
2022-10-11T03:15:12.848Z,13.80
2022-10-11T03:17:39.618Z,13.30
2022-10-11T03:20:07.088Z,13.80
2022-10-11T03:22:34.027Z,12.20
2022-10-11T03:25:04.117Z,12.20
2022-10-11T03:27:32.716Z,12.20
2022-10-11T03:29:59.758Z,12.20
2022-10-11T03:32:26.588Z,12.20
2022-10-11T03:34:53.378Z,12.90
2022-10-11T03:37:20.229Z,12.70
2022-10-11T03:39:46.953Z,12.20
2022-10-11T03:42:14.132Z,12.20
2022-10-11T03:44:42.114Z,13.30
2022-10-11T03:47:09.508Z,14.50
2022-10-11T03:49:41.205Z,12.80
2022-10-11T03:52:09.588Z,11.40
2022-10-11T03:54:36.404Z,12.00
2022-10-11T03:57:03.295Z,13.20
2022-10-11T03:59:30.180Z,12.00
2022-10-11T04:01:57.057Z,12.10
2022-10-11T04:04:23.930Z,12.20
2022-10-11T04:06:50.764Z,12.00
2022-10-11T04:09:17.751Z,12.80
2022-10-11T04:11:44.496Z,13.20
2022-10-11T04:14:11.295Z,12.10
2022-10-11T04:16:38.788Z,13.50
2022-10-11T04:19:05.778Z,12.10
2022-10-11T04:21:32.605Z,12.20
2022-10-11T04:23:59.637Z,12.10
2022-10-11T04:26:26.593Z,12.10
2022-10-11T04:28:53.445Z,12.00
2022-10-11T04:31:20.262Z,12.60
2022-10-11T04:33:47.005Z,12.00
2022-10-11T04:36:13.715Z,14.00
2022-10-11T04:38:40.441Z,11.90
2022-10-11T04:41:13.061Z,11.90
2022-10-11T04:43:40.187Z,12.80
2022-10-11T04:46:08.180Z,13.80
2022-10-11T04:48:35.365Z,12.90
2022-10-11T04:51:02.295Z,12.00
2022-10-11T04:53:29.156Z,12.00
2022-10-11T04:56:01.691Z,12.00
2022-10-11T04:58:29.982Z,12.00
2022-10-11T05:00:57.122Z,12.40
2022-10-11T05:03:24.429Z,11.90
2022-10-11T05:05:51.523Z,12.80
2022-10-11T05:08:18.444Z,13.70
2022-10-11T05:10:59.976Z,12.40
2022-10-11T05:13:28.598Z,12.20
2022-10-11T05:15:55.428Z,13.20
2022-10-11T05:18:22.644Z,12.00
2022-10-11T05:20:58.032Z,14.00
2022-10-11T05:23:24.840Z,12.80
2022-10-11T05:25:51.597Z,12.10
2022-10-11T05:28:18.490Z,14.10
2022-10-11T05:30:45.270Z,12.80
2022-10-11T05:33:12.055Z,12.00
2022-10-11T05:35:38.970Z,13.10
2022-10-11T05:38:05.793Z,12.20
2022-10-11T05:40:33.437Z,13.40
2022-10-11T05:43:00.236Z,14.80
2022-10-11T05:45:26.994Z,12.70
2022-10-11T05:47:53.809Z,13.00
2022-10-11T05:50:24.101Z,14.20
2022-10-11T05:52:51.314Z,13.40
2022-10-11T05:55:18.196Z,13.50
2022-10-11T05:57:45.018Z,13.60
2022-10-11T06:00:12.205Z,13.60
2022-10-11T06:02:39.162Z,12.30
2022-10-11T06:05:06.244Z,12.60
2022-10-11T06:07:35.829Z,12.30
2022-10-11T06:10:02.988Z,12.70
2022-10-11T06:12:31.068Z,12.40
2022-10-11T06:14:57.831Z,12.40
2022-10-11T06:17:24.885Z,14.40
2022-10-11T06:19:51.838Z,12.40
2022-10-11T06:22:18.832Z,12.40
2022-10-11T06:24:45.637Z,12.30
2022-10-11T06:27:13.007Z,14.90
2022-10-11T06:29:39.744Z,13.50
2022-10-11T06:32:06.753Z,13.10
2022-10-11T06:34:33.543Z,12.50
2022-10-11T06:37:00.386Z,12.80
2022-10-11T06:39:27.206Z,13.90
2022-10-11T06:41:53.937Z,12.70
2022-10-11T06:44:20.697Z,12.90
2022-10-11T06:46:47.512Z,13.80
2022-10-11T06:49:16.287Z,13.50
2022-10-11T06:51:46.373Z,12.80
2022-10-11T06:54:13.167Z,12.60
2022-10-11T06:56:40.844Z,12.70
2022-10-11T06:59:08.998Z,13.40
2022-10-11T07:01:35.835Z,14.20
2022-10-11T07:04:03.083Z,15.00
2022-10-11T07:06:31.252Z,13.00
2022-10-11T07:09:00.274Z,12.90
2022-10-11T07:11:28.083Z,14.10
2022-10-11T07:13:57.968Z,13.10
2022-10-11T07:16:26.171Z,13.20
2022-10-11T07:19:00.480Z,13.70
2022-10-11T07:21:29.916Z,14.00
2022-10-11T07:23:56.739Z,12.70
2022-10-11T07:26:23.628Z,13.70
2022-10-11T07:28:50.597Z,12.80
2022-10-11T07:31:23.505Z,13.00
2022-10-11T07:33:50.402Z,12.60
2022-10-11T07:36:17.244Z,14.10
2022-10-11T07:38:45.804Z,13.80
2022-10-11T07:41:13.125Z,12.70
2022-10-11T07:43:39.984Z,13.80
2022-10-11T07:46:08.017Z,14.30
2022-10-11T07:48:36.253Z,12.70
2022-10-11T07:51:07.025Z,12.60
2022-10-11T07:53:48.379Z,12.60
2022-10-11T07:56:17.807Z,12.60
2022-10-11T07:58:44.978Z,13.90
2022-10-11T08:01:12.363Z,13.80
2022-10-11T08:03:39.168Z,14.70
2022-10-11T08:06:09.715Z,12.80
2022-10-11T08:08:37.526Z,12.80
2022-10-11T08:11:05.152Z,13.60
2022-10-11T08:13:31.949Z,12.80
2022-10-11T08:15:58.960Z,12.80
2022-10-11T08:18:26.143Z,12.90
2022-10-11T08:20:53.018Z,12.80
2022-10-11T08:23:19.884Z,14.00
2022-10-11T08:25:48.124Z,13.30
2022-10-11T08:28:17.401Z,13.60
2022-10-11T08:30:49.179Z,14.00
2022-10-11T08:33:20.553Z,13.00
2022-10-11T08:35:47.755Z,12.90
2022-10-11T08:38:15.126Z,13.60
2022-10-11T08:40:55.789Z,14.00
2022-10-11T08:43:28.535Z,12.80
2022-10-11T08:45:57.920Z,12.80
2022-10-11T08:48:38.622Z,14.10
2022-10-11T08:51:14.958Z,12.90
2022-10-11T08:53:55.764Z,12.90
2022-10-11T08:56:23.904Z,12.80
2022-10-11T08:59:00.738Z,12.70
2022-10-11T09:01:28.679Z,13.30
2022-10-11T09:03:55.732Z,13.80
2022-10-11T09:06:40.481Z,13.00
2022-10-11T09:09:44.013Z,13.00
2022-10-11T09:12:32.806Z,12.90
2022-10-11T09:15:22.145Z,12.90
2022-10-11T09:18:16.535Z,12.80
2022-10-11T09:21:08.334Z,12.80
2022-10-11T09:23:44.348Z,12.70
2022-10-11T09:26:31.933Z,12.80
2022-10-11T09:29:22.410Z,12.70
2022-10-11T09:31:54.014Z,12.60
2022-10-11T09:34:25.255Z,12.60
2022-10-11T09:37:18.402Z,13.50
2022-10-11T09:40:11.957Z,12.80
2022-10-11T09:42:38.706Z,12.80
2022-10-11T09:45:20.581Z,12.70
2022-10-11T09:47:49.683Z,13.50
2022-10-11T09:50:20.885Z,13.30
2022-10-11T09:52:53.949Z,12.90
2022-10-11T09:55:54.280Z,12.70
2022-10-11T09:58:31.367Z,12.80
2022-10-11T10:01:08.061Z,13.00
2022-10-11T10:03:43.375Z,12.70
2022-10-11T10:06:26.230Z,13.10
2022-10-11T10:08:53.046Z,12.70
2022-10-11T10:11:20.060Z,12.80
2022-10-11T10:13:51.622Z,14.70
2022-10-11T10:16:24.990Z,12.70
2022-10-11T10:18:56.607Z,12.80
2022-10-11T10:21:38.462Z,12.80
2022-10-11T10:24:09.434Z,12.90
2022-10-11T10:26:36.272Z,12.90
2022-10-11T10:29:09.070Z,12.90
2022-10-11T10:32:20.754Z,12.90
2022-10-11T10:34:41.504Z,12.80
2022-10-11T10:37:29.448Z,12.80
2022-10-11T10:40:03.798Z,12.80
2022-10-11T10:42:30.629Z,12.80
2022-10-11T10:44:58.980Z,12.70
2022-10-11T10:47:56.873Z,13.00
2022-10-11T10:50:36.969Z,12.60
2022-10-11T10:53:18.745Z,12.70
2022-10-11T10:55:52.468Z,12.60
2022-10-11T10:58:27.146Z,13.80
2022-10-11T11:01:06.221Z,13.30
2022-10-11T11:03:46.328Z,12.60
2022-10-11T11:06:36.727Z,13.20
2022-10-11T11:09:23.754Z,12.70
2022-10-11T11:12:20.109Z,12.60
2022-10-11T11:14:46.821Z,12.60
2022-10-11T11:17:57.668Z,12.80
2022-10-11T11:20:51.922Z,12.70
2022-10-11T11:23:36.664Z,12.80
2022-10-11T11:26:27.145Z,13.00
2022-10-11T11:29:09.340Z,13.00
2022-10-11T11:32:03.989Z,13.00
2022-10-11T11:34:42.446Z,13.10
2022-10-11T11:37:28.175Z,13.00
2022-10-11T11:40:00.548Z,13.00
2022-10-11T11:42:34.298Z,13.00
2022-10-11T11:45:25.370Z,13.10
2022-10-11T11:48:09.949Z,13.20
2022-10-11T11:50:46.795Z,13.20
2022-10-11T11:53:34.877Z,13.30
2022-10-11T11:56:09.220Z,13.40
2022-10-11T11:59:02.996Z,13.40
2022-10-11T12:01:50.860Z,13.30
2022-10-11T12:04:29.721Z,13.20
2022-10-11T12:07:15.928Z,13.20
2022-10-11T12:09:46.498Z,13.30
2022-10-11T12:12:34.158Z,13.30
2022-10-11T12:15:10.059Z,13.30
2022-10-11T12:17:58.021Z,13.40
2022-10-11T12:20:26.443Z,13.50
2022-10-11T12:23:24.525Z,13.90
2022-10-11T12:26:28.729Z,13.90
2022-10-11T12:29:18.161Z,13.90
2022-10-11T12:31:51.862Z,14.00
2022-10-11T12:37:17.987Z,14.10
2022-10-11T12:39:57.173Z,14.20
2022-10-11T12:42:25.651Z,14.20
2022-10-11T12:45:11.076Z,14.20
2022-10-11T12:48:03.011Z,14.40
2022-10-11T12:51:03.127Z,14.50
2022-10-11T12:54:25.433Z,14.60
2022-10-11T12:57:36.758Z,14.70
2022-10-11T13:00:22.033Z,14.50
2022-10-11T13:02:49.471Z,14.30
2022-10-11T13:05:28.096Z,14.20
2022-10-11T13:07:59.020Z,14.10
2022-10-11T13:10:38.210Z,14.50
2022-10-11T13:13:29.977Z,14.10
2022-10-11T13:15:59.115Z,14.20
2022-10-11T13:18:26.634Z,14.40
2022-10-11T13:20:53.502Z,14.00
2022-10-11T13:23:29.674Z,14.10
2022-10-11T13:25:56.973Z,14.30
2022-10-11T13:28:23.933Z,14.20
2022-10-11T13:30:54.364Z,14.30
2022-10-11T13:33:32.264Z,14.50
2022-10-11T13:36:01.835Z,14.50
2022-10-11T13:38:32.041Z,14.50
2022-10-11T13:41:01.251Z,14.50
2022-10-11T13:43:29.830Z,14.50
2022-10-11T13:45:59.072Z,14.50
2022-10-11T13:48:31.480Z,15.60
2022-10-11T13:51:30.673Z,15.30
2022-10-11T13:54:13.521Z,14.20
2022-10-11T13:56:50.895Z,14.10
2022-10-11T13:59:23.172Z,14.10
2022-10-11T14:01:57.540Z,14.10
2022-10-11T14:04:29.356Z,14.10
2022-10-11T14:07:02.534Z,14.10
2022-10-11T14:09:33.808Z,14.00
2022-10-11T14:12:31.128Z,15.00
2022-10-11T14:14:59.802Z,13.90
2022-10-11T14:17:45.297Z,14.10
2022-10-11T14:20:21.047Z,14.30
2022-10-11T14:22:51.893Z,14.20
2022-10-11T14:25:19.833Z,13.90
2022-10-11T14:27:54.752Z,14.00
2022-10-11T14:30:26.418Z,14.00
2022-10-11T14:32:56.267Z,14.10
2022-10-11T14:35:29.096Z,14.10
2022-10-11T14:37:56.312Z,14.10
2022-10-11T14:40:26.187Z,14.10
2022-10-11T14:42:53.586Z,14.10
2022-10-11T14:45:21.404Z,14.10
2022-10-11T14:47:49.545Z,14.00
2022-10-11T14:50:39.136Z,14.10
2022-10-11T14:53:07.581Z,14.10
2022-10-11T14:55:39.642Z,14.10
2022-10-11T14:58:07.879Z,14.10
2022-10-11T15:00:35.805Z,14.10
2022-10-11T15:03:05.021Z,14.00
2022-10-11T15:05:34.259Z,14.00
2022-10-11T15:08:06.431Z,14.00
2022-10-11T15:10:40.927Z,14.00
2022-10-11T15:13:08.692Z,14.00
2022-10-11T15:15:40.743Z,13.90
2022-10-11T15:18:12.287Z,13.90
2022-10-11T15:20:42.501Z,13.80
2022-10-11T15:23:10.950Z,13.80
2022-10-11T15:25:40.068Z,13.80
2022-10-11T15:28:08.664Z,13.80
2022-10-11T15:30:41.252Z,13.80
2022-10-11T15:33:08.979Z,13.80
2022-10-11T15:35:36.012Z,13.70
2022-10-11T15:38:03.476Z,13.60
2022-10-11T15:40:33.711Z,13.60
2022-10-11T15:43:01.845Z,13.60
2022-10-11T15:45:29.591Z,13.60
2022-10-11T15:47:57.080Z,13.50
2022-10-11T15:50:40.098Z,13.50
2022-10-11T15:53:14.666Z,13.40
2022-10-11T15:55:44.575Z,13.40
2022-10-11T15:58:18.801Z,13.40
2022-10-11T16:00:48.010Z,13.40
2022-10-11T16:03:16.404Z,13.50
2022-10-11T16:05:43.940Z,13.50
2022-10-11T16:08:11.237Z,13.50
2022-10-11T16:10:39.415Z,13.40
2022-10-11T16:13:06.720Z,13.40
2022-10-11T16:15:35.539Z,13.30
2022-10-11T16:18:02.533Z,13.30
2022-10-11T16:20:29.691Z,13.30
2022-10-11T16:22:57.674Z,13.30
2022-10-11T16:25:24.817Z,13.20
2022-10-11T16:27:52.931Z,13.30
2022-10-11T16:30:20.402Z,13.30
2022-10-11T16:32:48.186Z,13.30
2022-10-11T16:35:16.326Z,13.20
2022-10-11T16:37:44.171Z,13.20
2022-10-11T16:40:15.902Z,13.20
2022-10-11T16:42:43.306Z,13.20
2022-10-11T16:45:15.471Z,13.20
2022-10-11T16:47:43.824Z,13.30
2022-10-11T16:50:11.704Z,13.30
2022-10-11T16:52:38.721Z,13.30
2022-10-11T16:55:06.487Z,13.30
2022-10-11T16:57:33.486Z,13.40
2022-10-11T17:00:00.455Z,13.30
2022-10-11T17:02:31.490Z,13.30
2022-10-11T17:04:59.926Z,13.30
2022-10-11T17:07:27.522Z,13.30
2022-10-11T17:09:54.963Z,13.30
2022-10-11T17:12:24.289Z,13.30
2022-10-11T17:14:51.562Z,13.30
2022-10-11T17:17:19.307Z,13.30
2022-10-11T17:19:48.038Z,13.30
2022-10-11T17:22:18.494Z,13.30
2022-10-11T17:24:46.077Z,13.30
2022-10-11T17:27:13.678Z,13.30
2022-10-11T17:29:41.021Z,13.30
2022-10-11T17:32:08.875Z,13.20
2022-10-11T17:34:36.065Z,13.10
2022-10-11T17:37:03.226Z,13.10
2022-10-11T17:39:30.326Z,13.10
2022-10-11T17:41:57.327Z,13.00
2022-10-11T17:44:24.334Z,13.00
2022-10-11T17:46:51.346Z,13.00
2022-10-11T17:49:18.306Z,13.00
2022-10-11T17:51:45.539Z,13.00
2022-10-11T17:54:13.095Z,13.00
2022-10-11T17:56:41.976Z,13.00
2022-10-11T17:59:16.001Z,13.10
2022-10-11T18:01:42.957Z,13.00
2022-10-11T18:04:16.497Z,13.00
2022-10-11T18:06:45.512Z,13.00
2022-10-11T18:09:13.736Z,13.00
2022-10-11T18:11:40.863Z,13.00
2022-10-11T18:14:08.075Z,12.90
2022-10-11T18:16:36.477Z,12.80
2022-10-11T18:19:07.151Z,12.90
2022-10-11T18:21:35.104Z,12.80
2022-10-11T18:24:05.322Z,12.90
2022-10-11T18:26:32.375Z,12.80
2022-10-11T18:28:59.723Z,12.80
2022-10-11T18:31:29.475Z,12.70
2022-10-11T18:33:56.883Z,12.80
2022-10-11T18:36:27.092Z,12.80
2022-10-11T18:38:56.660Z,12.80
2022-10-11T18:41:30.444Z,12.80
2022-10-11T18:44:00.917Z,12.80
2022-10-11T18:46:28.733Z,12.80
2022-10-11T18:48:57.455Z,12.80
2022-10-11T18:51:26.654Z,12.80
2022-10-11T18:53:54.654Z,12.80
2022-10-11T18:56:26.767Z,12.80
2022-10-11T18:58:55.581Z,12.80
2022-10-11T19:01:24.576Z,12.70
2022-10-11T19:03:53.805Z,12.70
2022-10-11T19:06:24.749Z,12.70
2022-10-11T19:08:54.074Z,12.70
2022-10-11T19:11:22.646Z,12.70
2022-10-11T19:13:58.596Z,12.70
2022-10-11T19:16:26.752Z,12.70
2022-10-11T19:18:53.827Z,12.70
2022-10-11T19:21:21.101Z,12.70
2022-10-11T19:23:49.230Z,12.80
2022-10-11T19:26:16.228Z,12.70
2022-10-11T19:28:43.977Z,12.70
2022-10-11T19:31:14.436Z,12.70
2022-10-11T19:33:41.350Z,12.60
2022-10-11T19:36:10.530Z,12.60
2022-10-11T19:38:37.514Z,12.60
2022-10-11T19:41:05.420Z,12.60
2022-10-11T19:43:32.357Z,12.60
2022-10-11T19:46:04.272Z,12.50
2022-10-11T19:48:31.586Z,12.60
2022-10-11T19:51:07.448Z,12.50
2022-10-11T19:53:34.644Z,12.50
2022-10-11T19:56:07.754Z,12.50
2022-10-11T19:58:35.016Z,12.50
2022-10-11T20:01:06.693Z,12.50
2022-10-11T20:03:34.416Z,12.50
2022-10-11T20:06:03.747Z,12.50
2022-10-11T20:08:31.461Z,12.50
2022-10-11T20:11:00.134Z,12.50
2022-10-11T20:13:33.943Z,12.50
2022-10-11T20:16:05.493Z,12.60
2022-10-11T20:18:33.418Z,12.60
2022-10-11T20:21:03.476Z,12.60
2022-10-11T20:23:31.057Z,12.60
2022-10-11T20:26:02.453Z,12.50
2022-10-11T20:28:31.558Z,12.50
2022-10-11T20:31:00.114Z,12.50
2022-10-11T20:33:30.013Z,12.40
2022-10-11T20:36:02.271Z,12.50
2022-10-11T20:38:30.986Z,12.40
2022-10-11T20:40:58.066Z,12.40
2022-10-11T20:43:25.595Z,12.40
2022-10-11T20:46:20.373Z,12.40
2022-10-11T20:49:00.518Z,12.30
2022-10-11T20:51:33.092Z,12.30
2022-10-11T20:54:00.660Z,12.30
2022-10-11T20:56:28.450Z,12.30
2022-10-11T20:58:56.425Z,12.30
2022-10-11T21:01:26.437Z,12.30
2022-10-11T21:03:54.164Z,12.30
2022-10-11T21:06:21.328Z,11.60
2022-10-11T21:08:48.334Z,12.20
2022-10-11T21:11:15.444Z,12.20
2022-10-11T21:13:42.808Z,12.30
2022-10-11T21:16:14.608Z,12.20
2022-10-11T21:18:41.854Z,12.20
2022-10-11T21:21:14.134Z,12.30
2022-10-11T21:23:41.713Z,12.30
2022-10-11T21:26:11.387Z,12.30
2022-10-11T21:28:40.029Z,12.40
2022-10-11T21:31:15.684Z,12.40
2022-10-11T21:33:43.994Z,12.50
2022-10-11T21:36:12.989Z,12.50
2022-10-11T21:38:40.105Z,12.50
2022-10-11T21:41:15.236Z,12.60
2022-10-11T21:43:42.733Z,12.70
2022-10-11T21:46:20.381Z,12.60
2022-10-11T21:48:47.821Z,12.60
2022-10-11T21:51:23.418Z,12.60
2022-10-11T21:53:51.164Z,12.60
2022-10-11T21:56:18.183Z,12.50
2022-10-11T21:58:49.709Z,12.50
2022-10-11T22:01:17.890Z,12.50
2022-10-11T22:03:45.797Z,12.50
2022-10-11T22:06:13.806Z,12.50
2022-10-11T22:08:41.359Z,12.40
2022-10-11T22:11:11.743Z,12.40
2022-10-11T22:13:38.931Z,12.40
2022-10-11T22:16:08.859Z,12.40
2022-10-11T22:18:35.993Z,12.40
2022-10-11T22:21:07.772Z,12.50
2022-10-11T22:23:35.117Z,12.50
2022-10-11T22:26:11.050Z,12.60
2022-10-11T22:28:38.074Z,12.50
2022-10-11T22:31:06.463Z,12.60
2022-10-11T22:33:34.213Z,12.60
2022-10-11T22:36:03.842Z,12.60
2022-10-11T22:38:31.010Z,12.70
2022-10-11T22:40:58.806Z,12.70
2022-10-11T22:43:25.659Z,12.60
2022-10-11T22:45:52.682Z,12.60
2022-10-11T22:48:19.894Z,12.60
2022-10-11T22:50:47.107Z,12.60
2022-10-11T22:53:14.872Z,12.60
2022-10-11T22:55:42.389Z,12.60
2022-10-11T22:58:09.930Z,12.60
2022-10-11T23:00:37.130Z,12.60
2022-10-11T23:03:04.776Z,12.60
2022-10-11T23:05:31.741Z,12.60
2022-10-11T23:07:58.574Z,12.60
2022-10-11T23:10:25.852Z,12.60
2022-10-11T23:12:52.693Z,12.60
2022-10-11T23:15:19.591Z,12.70
2022-10-11T23:17:46.601Z,12.70
2022-10-11T23:20:13.489Z,12.70
2022-10-11T23:22:40.466Z,12.70
2022-10-11T23:25:08.089Z,12.60
2022-10-11T23:27:35.160Z,12.50
2022-10-11T23:30:02.419Z,12.50
2022-10-11T23:32:29.799Z,12.50
2022-10-11T23:34:56.748Z,12.50
2022-10-11T23:37:23.722Z,12.50
2022-10-11T23:39:52.026Z,12.50
2022-10-11T23:42:18.947Z,12.60
2022-10-11T23:44:45.865Z,12.60
2022-10-11T23:47:12.817Z,12.50
2022-10-11T23:49:39.756Z,12.50
2022-10-11T23:52:06.777Z,12.50
2022-10-11T23:54:33.719Z,12.40
2022-10-11T23:57:00.633Z,12.40
2022-10-11T23:59:27.731Z,12.40
